sensor_id;sensor_type;location;lat;lon;timestamp;P1;durP1;ratioP1;P2;durP2;ratioP2
60867;SDS011;46702;48.370;10.794;2024-02-26T00:01:39;6.32;;;4.45;;
60867;SDS011;46702;48.370;10.794;2024-02-26T00:04:05;5.80;;;4.10;;
60867;SDS011;46702;48.370;10.794;2024-02-26T00:06:31;4.78;;;3.40;;
60867;SDS011;46702;48.370;10.794;2024-02-26T00:08:57;6.93;;;3.88;;
60867;SDS011;46702;48.370;10.794;2024-02-26T00:11:22;5.00;;;4.10;;
60867;SDS011;46702;48.370;10.794;2024-02-26T00:13:48;4.80;;;3.58;;
60867;SDS011;46702;48.370;10.794;2024-02-26T00:16:13;6.88;;;3.92;;
60867;SDS011;46702;48.370;10.794;2024-02-26T00:18:39;5.10;;;4.22;;
60867;SDS011;46702;48.370;10.794;2024-02-26T00:21:05;5.63;;;4.20;;
60867;SDS011;46702;48.370;10.794;2024-02-26T00:23:30;6.85;;;4.28;;
60867;SDS011;46702;48.370;10.794;2024-02-26T00:25:56;5.32;;;4.53;;
60867;SDS011;46702;48.370;10.794;2024-02-26T00:28:21;4.72;;;3.83;;
60867;SDS011;46702;48.370;10.794;2024-02-26T00:30:47;5.78;;;4.40;;
60867;SDS011;46702;48.370;10.794;2024-02-26T00:33:16;6.15;;;4.43;;
60867;SDS011;46702;48.370;10.794;2024-02-26T00:35:42;5.28;;;3.85;;
60867;SDS011;46702;48.370;10.794;2024-02-26T00:38:08;5.10;;;4.55;;
60867;SDS011;46702;48.370;10.794;2024-02-26T00:40:33;5.55;;;4.28;;
60867;SDS011;46702;48.370;10.794;2024-02-26T00:42:59;6.00;;;3.95;;
60867;SDS011;46702;48.370;10.794;2024-02-26T00:45:25;5.20;;;3.55;;
60867;SDS011;46702;48.370;10.794;2024-02-26T00:47:50;6.60;;;4.35;;
60867;SDS011;46702;48.370;10.794;2024-02-26T00:50:16;4.88;;;4.35;;
60867;SDS011;46702;48.370;10.794;2024-02-26T00:52:42;8.50;;;4.75;;
60867;SDS011;46702;48.370;10.794;2024-02-26T00:55:07;5.03;;;4.35;;
60867;SDS011;46702;48.370;10.794;2024-02-26T00:57:33;7.82;;;4.57;;
60867;SDS011;46702;48.370;10.794;2024-02-26T00:59:59;5.70;;;3.72;;
60867;SDS011;46702;48.370;10.794;2024-02-26T01:02:25;5.18;;;4.07;;
60867;SDS011;46702;48.370;10.794;2024-02-26T01:04:51;6.05;;;3.95;;
60867;SDS011;46702;48.370;10.794;2024-02-26T01:07:17;6.70;;;4.25;;
60867;SDS011;46702;48.370;10.794;2024-02-26T01:09:44;4.28;;;3.60;;
60867;SDS011;46702;48.370;10.794;2024-02-26T01:12:09;8.38;;;5.10;;
60867;SDS011;46702;48.370;10.794;2024-02-26T01:14:35;5.05;;;4.20;;
60867;SDS011;46702;48.370;10.794;2024-02-26T01:17:00;6.30;;;4.60;;
60867;SDS011;46702;48.370;10.794;2024-02-26T01:19:26;5.05;;;3.78;;
60867;SDS011;46702;48.370;10.794;2024-02-26T01:21:52;5.93;;;4.07;;
60867;SDS011;46702;48.370;10.794;2024-02-26T01:24:18;6.75;;;4.10;;
60867;SDS011;46702;48.370;10.794;2024-02-26T01:26:44;4.43;;;3.90;;
60867;SDS011;46702;48.370;10.794;2024-02-26T01:29:09;5.57;;;3.90;;
60867;SDS011;46702;48.370;10.794;2024-02-26T01:31:35;7.57;;;4.75;;
60867;SDS011;46702;48.370;10.794;2024-02-26T01:34:01;6.30;;;4.07;;
60867;SDS011;46702;48.370;10.794;2024-02-26T01:36:27;7.13;;;4.00;;
60867;SDS011;46702;48.370;10.794;2024-02-26T01:38:52;5.53;;;4.18;;
60867;SDS011;46702;48.370;10.794;2024-02-26T01:41:18;6.05;;;3.90;;
60867;SDS011;46702;48.370;10.794;2024-02-26T01:43:44;5.70;;;4.38;;
60867;SDS011;46702;48.370;10.794;2024-02-26T01:46:10;7.35;;;4.88;;
60867;SDS011;46702;48.370;10.794;2024-02-26T01:48:39;5.53;;;3.97;;
60867;SDS011;46702;48.370;10.794;2024-02-26T01:51:06;6.32;;;4.53;;
60867;SDS011;46702;48.370;10.794;2024-02-26T01:53:32;6.32;;;4.72;;
60867;SDS011;46702;48.370;10.794;2024-02-26T01:55:58;5.88;;;4.25;;
60867;SDS011;46702;48.370;10.794;2024-02-26T01:58:24;4.80;;;4.13;;
60867;SDS011;46702;48.370;10.794;2024-02-26T02:00:49;8.80;;;4.65;;
60867;SDS011;46702;48.370;10.794;2024-02-26T02:03:15;6.05;;;4.28;;
60867;SDS011;46702;48.370;10.794;2024-02-26T02:05:41;6.65;;;4.22;;
60867;SDS011;46702;48.370;10.794;2024-02-26T02:08:10;10.05;;;5.07;;
60867;SDS011;46702;48.370;10.794;2024-02-26T02:10:45;8.15;;;4.70;;
60867;SDS011;46702;48.370;10.794;2024-02-26T02:13:12;5.97;;;4.55;;
60867;SDS011;46702;48.370;10.794;2024-02-26T02:15:39;6.43;;;4.80;;
60867;SDS011;46702;48.370;10.794;2024-02-26T02:18:04;7.57;;;4.93;;
60867;SDS011;46702;48.370;10.794;2024-02-26T02:20:34;5.95;;;4.78;;
60867;SDS011;46702;48.370;10.794;2024-02-26T02:23:00;8.63;;;4.65;;
60867;SDS011;46702;48.370;10.794;2024-02-26T02:25:26;5.05;;;4.20;;
60867;SDS011;46702;48.370;10.794;2024-02-26T02:27:55;11.65;;;4.70;;
60867;SDS011;46702;48.370;10.794;2024-02-26T02:30:22;5.35;;;4.57;;
60867;SDS011;46702;48.370;10.794;2024-02-26T02:32:51;6.50;;;4.43;;
60867;SDS011;46702;48.370;10.794;2024-02-26T02:35:17;7.05;;;4.88;;
60867;SDS011;46702;48.370;10.794;2024-02-26T02:37:42;7.05;;;5.07;;
60867;SDS011;46702;48.370;10.794;2024-02-26T02:40:08;7.00;;;4.53;;
60867;SDS011;46702;48.370;10.794;2024-02-26T02:42:34;5.43;;;4.60;;
60867;SDS011;46702;48.370;10.794;2024-02-26T02:45:00;5.75;;;4.20;;
60867;SDS011;46702;48.370;10.794;2024-02-26T02:47:25;7.05;;;4.88;;
60867;SDS011;46702;48.370;10.794;2024-02-26T02:49:51;6.38;;;4.80;;
60867;SDS011;46702;48.370;10.794;2024-02-26T02:52:17;6.95;;;4.93;;
60867;SDS011;46702;48.370;10.794;2024-02-26T02:54:42;5.90;;;4.70;;
60867;SDS011;46702;48.370;10.794;2024-02-26T02:57:08;8.27;;;5.30;;
60867;SDS011;46702;48.370;10.794;2024-02-26T02:59:34;8.90;;;5.18;;
60867;SDS011;46702;48.370;10.794;2024-02-26T03:02:00;10.02;;;5.25;;
60867;SDS011;46702;48.370;10.794;2024-02-26T03:04:26;8.13;;;4.72;;
60867;SDS011;46702;48.370;10.794;2024-02-26T03:06:52;7.80;;;5.10;;
60867;SDS011;46702;48.370;10.794;2024-02-26T03:09:18;8.77;;;4.97;;
60867;SDS011;46702;48.370;10.794;2024-02-26T03:11:44;7.03;;;5.20;;
60867;SDS011;46702;48.370;10.794;2024-02-26T03:14:10;6.75;;;5.13;;
60867;SDS011;46702;48.370;10.794;2024-02-26T03:16:36;7.60;;;5.43;;
60867;SDS011;46702;48.370;10.794;2024-02-26T03:19:02;8.68;;;5.28;;
60867;SDS011;46702;48.370;10.794;2024-02-26T03:21:28;9.00;;;5.68;;
60867;SDS011;46702;48.370;10.794;2024-02-26T03:23:54;10.75;;;5.55;;
60867;SDS011;46702;48.370;10.794;2024-02-26T03:26:20;9.43;;;5.57;;
60867;SDS011;46702;48.370;10.794;2024-02-26T03:28:46;8.43;;;5.63;;
60867;SDS011;46702;48.370;10.794;2024-02-26T03:31:12;8.48;;;5.25;;
60867;SDS011;46702;48.370;10.794;2024-02-26T03:33:38;9.95;;;6.07;;
60867;SDS011;46702;48.370;10.794;2024-02-26T03:36:03;8.75;;;5.38;;
60867;SDS011;46702;48.370;10.794;2024-02-26T03:38:29;9.55;;;6.13;;
60867;SDS011;46702;48.370;10.794;2024-02-26T03:40:55;11.77;;;6.78;;
60867;SDS011;46702;48.370;10.794;2024-02-26T03:43:21;11.85;;;7.07;;
60867;SDS011;46702;48.370;10.794;2024-02-26T03:45:46;12.10;;;6.45;;
60867;SDS011;46702;48.370;10.794;2024-02-26T03:48:12;10.43;;;5.35;;
60867;SDS011;46702;48.370;10.794;2024-02-26T03:50:38;12.18;;;6.47;;
60867;SDS011;46702;48.370;10.794;2024-02-26T03:53:03;11.55;;;6.13;;
60867;SDS011;46702;48.370;10.794;2024-02-26T03:55:29;12.02;;;6.43;;
60867;SDS011;46702;48.370;10.794;2024-02-26T03:57:55;9.60;;;5.68;;
60867;SDS011;46702;48.370;10.794;2024-02-26T04:00:20;11.27;;;6.85;;
60867;SDS011;46702;48.370;10.794;2024-02-26T04:02:46;8.38;;;5.45;;
60867;SDS011;46702;48.370;10.794;2024-02-26T04:05:13;10.98;;;6.75;;
60867;SDS011;46702;48.370;10.794;2024-02-26T04:07:39;11.20;;;6.28;;
60867;SDS011;46702;48.370;10.794;2024-02-26T04:10:12;10.80;;;6.45;;
60867;SDS011;46702;48.370;10.794;2024-02-26T04:12:38;11.50;;;6.53;;
60867;SDS011;46702;48.370;10.794;2024-02-26T04:15:06;12.23;;;6.67;;
60867;SDS011;46702;48.370;10.794;2024-02-26T04:17:35;11.30;;;6.82;;
60867;SDS011;46702;48.370;10.794;2024-02-26T04:20:02;7.75;;;5.38;;
60867;SDS011;46702;48.370;10.794;2024-02-26T04:22:28;8.73;;;5.88;;
60867;SDS011;46702;48.370;10.794;2024-02-26T04:24:54;11.30;;;6.72;;
60867;SDS011;46702;48.370;10.794;2024-02-26T04:27:20;10.65;;;6.20;;
60867;SDS011;46702;48.370;10.794;2024-02-26T04:29:45;8.23;;;6.15;;
60867;SDS011;46702;48.370;10.794;2024-02-26T04:32:11;8.18;;;5.95;;
60867;SDS011;46702;48.370;10.794;2024-02-26T04:34:36;11.10;;;6.22;;
60867;SDS011;46702;48.370;10.794;2024-02-26T04:37:02;9.45;;;5.53;;
60867;SDS011;46702;48.370;10.794;2024-02-26T04:39:28;9.88;;;5.93;;
60867;SDS011;46702;48.370;10.794;2024-02-26T04:41:53;9.18;;;6.15;;
60867;SDS011;46702;48.370;10.794;2024-02-26T04:44:19;8.38;;;5.70;;
60867;SDS011;46702;48.370;10.794;2024-02-26T04:46:44;10.90;;;5.95;;
60867;SDS011;46702;48.370;10.794;2024-02-26T04:49:10;11.38;;;6.75;;
60867;SDS011;46702;48.370;10.794;2024-02-26T04:51:36;10.35;;;6.22;;
60867;SDS011;46702;48.370;10.794;2024-02-26T04:54:02;8.98;;;5.20;;
60867;SDS011;46702;48.370;10.794;2024-02-26T04:56:28;9.77;;;5.70;;
60867;SDS011;46702;48.370;10.794;2024-02-26T04:58:53;8.88;;;6.05;;
60867;SDS011;46702;48.370;10.794;2024-02-26T05:01:19;10.07;;;6.35;;
60867;SDS011;46702;48.370;10.794;2024-02-26T05:03:44;9.43;;;5.95;;
60867;SDS011;46702;48.370;10.794;2024-02-26T05:06:10;8.77;;;5.63;;
60867;SDS011;46702;48.370;10.794;2024-02-26T05:08:35;9.27;;;5.57;;
60867;SDS011;46702;48.370;10.794;2024-02-26T05:11:03;7.95;;;5.65;;
60867;SDS011;46702;48.370;10.794;2024-02-26T05:13:29;9.85;;;6.15;;
60867;SDS011;46702;48.370;10.794;2024-02-26T05:15:54;11.57;;;6.57;;
60867;SDS011;46702;48.370;10.794;2024-02-26T05:18:21;8.52;;;6.22;;
60867;SDS011;46702;48.370;10.794;2024-02-26T05:20:47;10.05;;;5.85;;
60867;SDS011;46702;48.370;10.794;2024-02-26T05:23:13;8.50;;;5.93;;
60867;SDS011;46702;48.370;10.794;2024-02-26T05:25:38;9.15;;;5.95;;
60867;SDS011;46702;48.370;10.794;2024-02-26T05:28:04;11.18;;;5.97;;
60867;SDS011;46702;48.370;10.794;2024-02-26T05:30:30;9.60;;;6.18;;
60867;SDS011;46702;48.370;10.794;2024-02-26T05:32:55;11.30;;;7.18;;
60867;SDS011;46702;48.370;10.794;2024-02-26T05:35:21;9.45;;;6.18;;
60867;SDS011;46702;48.370;10.794;2024-02-26T05:37:46;8.75;;;6.88;;
60867;SDS011;46702;48.370;10.794;2024-02-26T05:40:12;10.07;;;6.97;;
60867;SDS011;46702;48.370;10.794;2024-02-26T05:42:38;12.20;;;7.35;;
60867;SDS011;46702;48.370;10.794;2024-02-26T05:45:03;8.93;;;5.72;;
60867;SDS011;46702;48.370;10.794;2024-02-26T05:47:33;9.35;;;6.03;;
60867;SDS011;46702;48.370;10.794;2024-02-26T05:52:26;10.85;;;6.68;;
60867;SDS011;46702;48.370;10.794;2024-02-26T05:54:52;10.30;;;6.60;;
60867;SDS011;46702;48.370;10.794;2024-02-26T05:57:18;10.93;;;6.70;;
60867;SDS011;46702;48.370;10.794;2024-02-26T05:59:44;14.70;;;7.63;;
60867;SDS011;46702;48.370;10.794;2024-02-26T06:02:10;10.80;;;6.55;;
60867;SDS011;46702;48.370;10.794;2024-02-26T06:04:36;12.70;;;6.82;;
60867;SDS011;46702;48.370;10.794;2024-02-26T06:07:01;11.70;;;7.47;;
60867;SDS011;46702;48.370;10.794;2024-02-26T06:09:27;15.68;;;7.88;;
60867;SDS011;46702;48.370;10.794;2024-02-26T06:11:53;11.60;;;7.20;;
60867;SDS011;46702;48.370;10.794;2024-02-26T06:14:18;12.43;;;7.28;;
60867;SDS011;46702;48.370;10.794;2024-02-26T06:16:45;10.32;;;6.50;;
60867;SDS011;46702;48.370;10.794;2024-02-26T06:19:11;6.50;;;4.95;;
60867;SDS011;46702;48.370;10.794;2024-02-26T06:21:37;8.52;;;5.50;;
60867;SDS011;46702;48.370;10.794;2024-02-26T06:24:03;11.73;;;6.53;;
60867;SDS011;46702;48.370;10.794;2024-02-26T06:26:28;11.95;;;6.68;;
60867;SDS011;46702;48.370;10.794;2024-02-26T06:28:54;14.30;;;7.85;;
60867;SDS011;46702;48.370;10.794;2024-02-26T06:31:21;11.23;;;6.78;;
60867;SDS011;46702;48.370;10.794;2024-02-26T06:33:48;12.57;;;7.10;;
60867;SDS011;46702;48.370;10.794;2024-02-26T06:36:15;10.60;;;6.70;;
60867;SDS011;46702;48.370;10.794;2024-02-26T06:38:40;9.85;;;6.70;;
60867;SDS011;46702;48.370;10.794;2024-02-26T06:41:06;11.40;;;7.43;;
60867;SDS011;46702;48.370;10.794;2024-02-26T06:43:32;12.00;;;7.07;;
60867;SDS011;46702;48.370;10.794;2024-02-26T06:45:57;12.20;;;6.18;;
60867;SDS011;46702;48.370;10.794;2024-02-26T06:48:23;11.63;;;6.68;;
60867;SDS011;46702;48.370;10.794;2024-02-26T06:50:49;14.95;;;7.97;;
60867;SDS011;46702;48.370;10.794;2024-02-26T06:53:15;17.70;;;9.82;;
60867;SDS011;46702;48.370;10.794;2024-02-26T06:55:41;13.32;;;8.02;;
60867;SDS011;46702;48.370;10.794;2024-02-26T06:58:08;14.65;;;7.82;;
60867;SDS011;46702;48.370;10.794;2024-02-26T07:00:34;11.95;;;7.63;;
60867;SDS011;46702;48.370;10.794;2024-02-26T07:03:00;10.20;;;6.85;;
60867;SDS011;46702;48.370;10.794;2024-02-26T07:05:26;13.25;;;7.60;;
60867;SDS011;46702;48.370;10.794;2024-02-26T07:07:52;13.27;;;7.32;;
60867;SDS011;46702;48.370;10.794;2024-02-26T07:10:18;11.68;;;6.57;;
60867;SDS011;46702;48.370;10.794;2024-02-26T07:12:43;14.38;;;6.63;;
60867;SDS011;46702;48.370;10.794;2024-02-26T07:15:09;8.80;;;5.90;;
60867;SDS011;46702;48.370;10.794;2024-02-26T07:17:35;9.73;;;6.43;;
60867;SDS011;46702;48.370;10.794;2024-02-26T07:20:01;13.77;;;6.93;;
60867;SDS011;46702;48.370;10.794;2024-02-26T07:22:30;11.70;;;5.80;;
60867;SDS011;46702;48.370;10.794;2024-02-26T07:24:56;9.35;;;6.10;;
60867;SDS011;46702;48.370;10.794;2024-02-26T07:27:22;10.50;;;6.70;;
60867;SDS011;46702;48.370;10.794;2024-02-26T07:29:47;12.45;;;6.85;;
60867;SDS011;46702;48.370;10.794;2024-02-26T07:32:13;10.32;;;6.55;;
60867;SDS011;46702;48.370;10.794;2024-02-26T07:34:39;10.35;;;7.07;;
60867;SDS011;46702;48.370;10.794;2024-02-26T07:37:07;11.07;;;6.30;;
60867;SDS011;46702;48.370;10.794;2024-02-26T07:39:33;10.60;;;7.00;;
60867;SDS011;46702;48.370;10.794;2024-02-26T07:41:58;12.60;;;7.85;;
60867;SDS011;46702;48.370;10.794;2024-02-26T07:44:24;11.38;;;7.00;;
60867;SDS011;46702;48.370;10.794;2024-02-26T07:46:50;12.50;;;7.57;;
60867;SDS011;46702;48.370;10.794;2024-02-26T07:49:15;12.00;;;7.55;;
60867;SDS011;46702;48.370;10.794;2024-02-26T07:51:41;9.48;;;6.97;;
60867;SDS011;46702;48.370;10.794;2024-02-26T07:54:07;12.70;;;7.18;;
60867;SDS011;46702;48.370;10.794;2024-02-26T07:56:32;14.02;;;7.65;;
60867;SDS011;46702;48.370;10.794;2024-02-26T07:58:58;13.02;;;8.90;;
60867;SDS011;46702;48.370;10.794;2024-02-26T08:01:23;12.25;;;7.50;;
60867;SDS011;46702;48.370;10.794;2024-02-26T08:03:51;13.40;;;7.95;;
60867;SDS011;46702;48.370;10.794;2024-02-26T08:06:20;10.68;;;7.05;;
60867;SDS011;46702;48.370;10.794;2024-02-26T08:08:46;11.60;;;7.30;;
60867;SDS011;46702;48.370;10.794;2024-02-26T08:11:13;14.32;;;7.75;;
60867;SDS011;46702;48.370;10.794;2024-02-26T08:13:40;10.95;;;6.70;;
60867;SDS011;46702;48.370;10.794;2024-02-26T08:16:06;7.53;;;5.32;;
60867;SDS011;46702;48.370;10.794;2024-02-26T08:18:31;11.35;;;5.65;;
60867;SDS011;46702;48.370;10.794;2024-02-26T08:20:57;8.93;;;5.72;;
60867;SDS011;46702;48.370;10.794;2024-02-26T08:23:22;12.55;;;6.55;;
60867;SDS011;46702;48.370;10.794;2024-02-26T08:25:48;10.82;;;6.28;;
60867;SDS011;46702;48.370;10.794;2024-02-26T08:28:14;9.60;;;5.75;;
60867;SDS011;46702;48.370;10.794;2024-02-26T08:30:42;14.27;;;8.07;;
60867;SDS011;46702;48.370;10.794;2024-02-26T08:33:08;11.52;;;7.70;;
60867;SDS011;46702;48.370;10.794;2024-02-26T08:35:34;11.90;;;7.18;;
60867;SDS011;46702;48.370;10.794;2024-02-26T08:38:00;10.00;;;6.55;;
60867;SDS011;46702;48.370;10.794;2024-02-26T08:40:26;14.95;;;6.63;;
60867;SDS011;46702;48.370;10.794;2024-02-26T08:42:52;11.70;;;6.40;;
60867;SDS011;46702;48.370;10.794;2024-02-26T08:45:17;11.23;;;6.50;;
60867;SDS011;46702;48.370;10.794;2024-02-26T08:47:44;10.07;;;6.03;;
60867;SDS011;46702;48.370;10.794;2024-02-26T08:50:10;11.02;;;6.35;;
60867;SDS011;46702;48.370;10.794;2024-02-26T08:52:37;10.13;;;7.03;;
60867;SDS011;46702;48.370;10.794;2024-02-26T08:55:03;13.35;;;7.30;;
60867;SDS011;46702;48.370;10.794;2024-02-26T08:57:31;10.70;;;6.68;;
60867;SDS011;46702;48.370;10.794;2024-02-26T08:59:59;9.75;;;7.25;;
60867;SDS011;46702;48.370;10.794;2024-02-26T09:02:25;10.85;;;6.30;;
60867;SDS011;46702;48.370;10.794;2024-02-26T09:04:51;10.23;;;5.72;;
60867;SDS011;46702;48.370;10.794;2024-02-26T09:07:19;10.75;;;6.13;;
60867;SDS011;46702;48.370;10.794;2024-02-26T09:09:46;12.30;;;6.88;;
60867;SDS011;46702;48.370;10.794;2024-02-26T09:12:11;8.98;;;5.80;;
60867;SDS011;46702;48.370;10.794;2024-02-26T09:14:37;11.57;;;5.95;;
60867;SDS011;46702;48.370;10.794;2024-02-26T09:17:03;11.40;;;6.43;;
60867;SDS011;46702;48.370;10.794;2024-02-26T09:19:28;10.60;;;6.35;;
60867;SDS011;46702;48.370;10.794;2024-02-26T09:21:54;12.02;;;6.55;;
60867;SDS011;46702;48.370;10.794;2024-02-26T09:26:49;9.60;;;5.97;;
60867;SDS011;46702;48.370;10.794;2024-02-26T09:29:15;8.25;;;5.07;;
60867;SDS011;46702;48.370;10.794;2024-02-26T09:31:41;9.60;;;6.13;;
60867;SDS011;46702;48.370;10.794;2024-02-26T09:34:07;10.43;;;6.68;;
60867;SDS011;46702;48.370;10.794;2024-02-26T09:36:33;8.82;;;5.32;;
60867;SDS011;46702;48.370;10.794;2024-02-26T09:38:59;11.50;;;6.25;;
60867;SDS011;46702;48.370;10.794;2024-02-26T09:41:24;7.97;;;5.63;;
60867;SDS011;46702;48.370;10.794;2024-02-26T09:43:52;9.07;;;6.20;;
60867;SDS011;46702;48.370;10.794;2024-02-26T09:46:21;9.90;;;5.78;;
60867;SDS011;46702;48.370;10.794;2024-02-26T09:48:50;7.97;;;5.75;;
60867;SDS011;46702;48.370;10.794;2024-02-26T09:51:16;11.18;;;5.75;;
60867;SDS011;46702;48.370;10.794;2024-02-26T09:53:43;13.00;;;5.10;;
60867;SDS011;46702;48.370;10.794;2024-02-26T09:56:11;8.23;;;5.18;;
60867;SDS011;46702;48.370;10.794;2024-02-26T09:58:38;11.20;;;7.20;;
60867;SDS011;46702;48.370;10.794;2024-02-26T10:01:07;8.43;;;5.90;;
60867;SDS011;46702;48.370;10.794;2024-02-26T10:03:38;8.70;;;5.90;;
60867;SDS011;46702;48.370;10.794;2024-02-26T10:06:09;10.50;;;5.40;;
60867;SDS011;46702;48.370;10.794;2024-02-26T10:08:35;8.02;;;5.55;;
60867;SDS011;46702;48.370;10.794;2024-02-26T10:11:05;12.55;;;6.00;;
60867;SDS011;46702;48.370;10.794;2024-02-26T10:13:33;10.43;;;5.53;;
60867;SDS011;46702;48.370;10.794;2024-02-26T10:16:03;10.25;;;5.85;;
60867;SDS011;46702;48.370;10.794;2024-02-26T10:18:51;8.40;;;5.28;;
60867;SDS011;46702;48.370;10.794;2024-02-26T10:21:19;8.98;;;5.40;;
60867;SDS011;46702;48.370;10.794;2024-02-26T10:23:45;9.10;;;4.97;;
60867;SDS011;46702;48.370;10.794;2024-02-26T10:26:12;8.60;;;5.72;;
60867;SDS011;46702;48.370;10.794;2024-02-26T10:28:39;11.00;;;6.10;;
60867;SDS011;46702;48.370;10.794;2024-02-26T10:31:06;8.02;;;5.57;;
60867;SDS011;46702;48.370;10.794;2024-02-26T10:33:35;7.88;;;5.18;;
60867;SDS011;46702;48.370;10.794;2024-02-26T10:36:02;10.05;;;5.38;;
60867;SDS011;46702;48.370;10.794;2024-02-26T10:38:30;8.07;;;5.57;;
60867;SDS011;46702;48.370;10.794;2024-02-26T10:40:55;8.93;;;5.35;;
60867;SDS011;46702;48.370;10.794;2024-02-26T10:43:21;11.80;;;5.50;;
60867;SDS011;46702;48.370;10.794;2024-02-26T10:45:47;8.07;;;4.60;;
60867;SDS011;46702;48.370;10.794;2024-02-26T10:48:13;9.02;;;4.72;;
60867;SDS011;46702;48.370;10.794;2024-02-26T10:50:40;8.52;;;5.03;;
60867;SDS011;46702;48.370;10.794;2024-02-26T10:53:07;6.57;;;5.38;;
60867;SDS011;46702;48.370;10.794;2024-02-26T10:55:47;8.90;;;5.05;;
60867;SDS011;46702;48.370;10.794;2024-02-26T10:58:14;9.48;;;5.40;;
60867;SDS011;46702;48.370;10.794;2024-02-26T11:00:42;8.68;;;5.20;;
60867;SDS011;46702;48.370;10.794;2024-02-26T11:03:08;7.68;;;5.15;;
60867;SDS011;46702;48.370;10.794;2024-02-26T11:05:35;9.88;;;5.53;;
60867;SDS011;46702;48.370;10.794;2024-02-26T11:08:02;9.35;;;5.38;;
60867;SDS011;46702;48.370;10.794;2024-02-26T11:10:30;10.03;;;5.80;;
60867;SDS011;46702;48.370;10.794;2024-02-26T11:12:57;8.55;;;4.68;;
60867;SDS011;46702;48.370;10.794;2024-02-26T11:15:26;9.45;;;5.72;;
60867;SDS011;46702;48.370;10.794;2024-02-26T11:17:53;7.93;;;5.43;;
60867;SDS011;46702;48.370;10.794;2024-02-26T11:20:20;9.13;;;5.40;;
60867;SDS011;46702;48.370;10.794;2024-02-26T11:22:47;8.48;;;5.85;;
60867;SDS011;46702;48.370;10.794;2024-02-26T11:25:13;8.85;;;5.43;;
60867;SDS011;46702;48.370;10.794;2024-02-26T11:27:40;9.05;;;5.03;;
60867;SDS011;46702;48.370;10.794;2024-02-26T11:30:10;9.85;;;5.97;;
60867;SDS011;46702;48.370;10.794;2024-02-26T11:32:37;9.95;;;5.45;;
60867;SDS011;46702;48.370;10.794;2024-02-26T11:35:04;9.70;;;6.10;;
60867;SDS011;46702;48.370;10.794;2024-02-26T11:37:30;8.73;;;5.68;;
60867;SDS011;46702;48.370;10.794;2024-02-26T11:39:58;9.63;;;6.15;;
60867;SDS011;46702;48.370;10.794;2024-02-26T11:42:25;8.68;;;5.75;;
60867;SDS011;46702;48.370;10.794;2024-02-26T11:44:51;10.75;;;5.35;;
60867;SDS011;46702;48.370;10.794;2024-02-26T11:47:23;9.02;;;5.57;;
60867;SDS011;46702;48.370;10.794;2024-02-26T11:49:49;8.10;;;5.28;;
60867;SDS011;46702;48.370;10.794;2024-02-26T11:52:15;8.85;;;4.93;;
60867;SDS011;46702;48.370;10.794;2024-02-26T11:59:55;7.72;;;5.15;;
60867;SDS011;46702;48.370;10.794;2024-02-26T12:05:26;7.50;;;5.00;;
60867;SDS011;46702;48.370;10.794;2024-02-26T12:07:59;11.07;;;5.18;;
60867;SDS011;46702;48.370;10.794;2024-02-26T12:10:41;7.25;;;5.07;;
60867;SDS011;46702;48.370;10.794;2024-02-26T12:13:15;10.05;;;5.88;;
60867;SDS011;46702;48.370;10.794;2024-02-26T12:15:57;13.18;;;5.03;;
60867;SDS011;46702;48.370;10.794;2024-02-26T12:18:24;7.50;;;5.13;;
60867;SDS011;46702;48.370;10.794;2024-02-26T12:20:59;8.35;;;5.47;;
60867;SDS011;46702;48.370;10.794;2024-02-26T12:23:28;8.20;;;5.80;;
60867;SDS011;46702;48.370;10.794;2024-02-26T12:26:01;9.20;;;5.55;;
60867;SDS011;46702;48.370;10.794;2024-02-26T12:28:27;8.85;;;5.47;;
60867;SDS011;46702;48.370;10.794;2024-02-26T12:30:54;7.95;;;4.90;;
60867;SDS011;46702;48.370;10.794;2024-02-26T12:33:20;10.38;;;5.30;;
60867;SDS011;46702;48.370;10.794;2024-02-26T12:35:45;7.35;;;5.10;;
60867;SDS011;46702;48.370;10.794;2024-02-26T12:38:14;7.65;;;5.22;;
60867;SDS011;46702;48.370;10.794;2024-02-26T12:40:40;6.32;;;4.95;;
60867;SDS011;46702;48.370;10.794;2024-02-26T12:43:06;9.18;;;4.95;;
60867;SDS011;46702;48.370;10.794;2024-02-26T12:45:38;13.23;;;5.07;;
60867;SDS011;46702;48.370;10.794;2024-02-26T12:48:05;8.70;;;5.07;;
60867;SDS011;46702;48.370;10.794;2024-02-26T12:50:31;10.18;;;5.55;;
60867;SDS011;46702;48.370;10.794;2024-02-26T12:52:57;10.23;;;5.45;;
60867;SDS011;46702;48.370;10.794;2024-02-26T12:55:24;8.00;;;5.20;;
60867;SDS011;46702;48.370;10.794;2024-02-26T12:57:51;10.07;;;5.97;;
60867;SDS011;46702;48.370;10.794;2024-02-26T13:00:21;10.18;;;6.05;;
60867;SDS011;46702;48.370;10.794;2024-02-26T13:02:50;9.80;;;5.40;;
60867;SDS011;46702;48.370;10.794;2024-02-26T13:05:16;8.15;;;5.45;;
60867;SDS011;46702;48.370;10.794;2024-02-26T13:07:43;6.40;;;4.63;;
60867;SDS011;46702;48.370;10.794;2024-02-26T13:12:44;5.88;;;4.00;;
60867;SDS011;46702;48.370;10.794;2024-02-26T13:15:14;6.10;;;4.10;;
60867;SDS011;46702;48.370;10.794;2024-02-26T13:17:43;6.53;;;4.10;;
60867;SDS011;46702;48.370;10.794;2024-02-26T13:20:10;6.88;;;4.28;;
60867;SDS011;46702;48.370;10.794;2024-02-26T13:22:36;5.47;;;4.05;;
60867;SDS011;46702;48.370;10.794;2024-02-26T13:25:02;9.48;;;4.50;;
60867;SDS011;46702;48.370;10.794;2024-02-26T13:27:28;9.25;;;6.53;;
60867;SDS011;46702;48.370;10.794;2024-02-26T13:30:15;10.23;;;6.38;;
60867;SDS011;46702;48.370;10.794;2024-02-26T13:32:40;11.20;;;6.28;;
60867;SDS011;46702;48.370;10.794;2024-02-26T13:37:36;6.32;;;4.68;;
60867;SDS011;46702;48.370;10.794;2024-02-26T13:40:06;9.95;;;5.57;;
60867;SDS011;46702;48.370;10.794;2024-02-26T13:42:35;8.48;;;5.63;;
60867;SDS011;46702;48.370;10.794;2024-02-26T13:45:02;5.13;;;4.18;;
60867;SDS011;46702;48.370;10.794;2024-02-26T13:47:28;6.20;;;3.95;;
60867;SDS011;46702;48.370;10.794;2024-02-26T13:49:54;10.55;;;5.20;;
60867;SDS011;46702;48.370;10.794;2024-02-26T13:52:19;8.80;;;5.35;;
60867;SDS011;46702;48.370;10.794;2024-02-26T13:54:45;7.93;;;5.20;;
60867;SDS011;46702;48.370;10.794;2024-02-26T13:57:11;9.65;;;5.93;;
60867;SDS011;46702;48.370;10.794;2024-02-26T13:59:37;7.47;;;5.18;;
60867;SDS011;46702;48.370;10.794;2024-02-26T14:02:07;9.10;;;6.20;;
60867;SDS011;46702;48.370;10.794;2024-02-26T14:04:36;7.93;;;5.88;;
60867;SDS011;46702;48.370;10.794;2024-02-26T14:07:02;7.70;;;5.78;;
60867;SDS011;46702;48.370;10.794;2024-02-26T14:09:29;7.85;;;5.88;;
60867;SDS011;46702;48.370;10.794;2024-02-26T14:11:54;9.13;;;6.10;;
60867;SDS011;46702;48.370;10.794;2024-02-26T14:14:20;8.07;;;5.35;;
60867;SDS011;46702;48.370;10.794;2024-02-26T14:16:46;7.55;;;5.40;;
60867;SDS011;46702;48.370;10.794;2024-02-26T14:19:11;9.82;;;5.50;;
60867;SDS011;46702;48.370;10.794;2024-02-26T14:21:37;10.23;;;6.20;;
60867;SDS011;46702;48.370;10.794;2024-02-26T14:24:03;8.65;;;5.55;;
60867;SDS011;46702;48.370;10.794;2024-02-26T14:26:29;9.80;;;6.28;;
60867;SDS011;46702;48.370;10.794;2024-02-26T14:28:55;8.90;;;5.80;;
60867;SDS011;46702;48.370;10.794;2024-02-26T14:31:21;8.98;;;6.25;;
60867;SDS011;46702;48.370;10.794;2024-02-26T14:33:46;9.95;;;5.30;;
60867;SDS011;46702;48.370;10.794;2024-02-26T14:36:13;9.48;;;5.93;;
60867;SDS011;46702;48.370;10.794;2024-02-26T14:38:39;10.10;;;6.78;;
60867;SDS011;46702;48.370;10.794;2024-02-26T14:41:04;9.20;;;6.60;;
60867;SDS011;46702;48.370;10.794;2024-02-26T14:43:30;12.80;;;7.05;;